sensor_id;sensor_type;location;lat;lon;timestamp;P1;durP1;ratioP1;P2;durP2;ratioP2
65545;SDS011;52177;55.968;37.498;2022-11-15T00:00:01;3.88;;;1.10;;
65545;SDS011;52177;55.968;37.498;2022-11-15T00:00:31;2.80;;;0.80;;
65545;SDS011;52177;55.968;37.498;2022-11-15T00:01:05;2.78;;;0.70;;
65545;SDS011;52177;55.968;37.498;2022-11-15T00:01:36;1.95;;;0.80;;
65545;SDS011;52177;55.968;37.498;2022-11-15T00:02:07;2.55;;;1.00;;
65545;SDS011;52177;55.968;37.498;2022-11-15T00:02:37;1.33;;;0.68;;
65545;SDS011;52177;55.968;37.498;2022-11-15T00:03:08;4.97;;;1.13;;
65545;SDS011;52177;55.968;37.498;2022-11-15T00:03:38;3.50;;;1.10;;
65545;SDS011;52177;55.968;37.498;2022-11-15T00:04:08;4.30;;;1.00;;
65545;SDS011;52177;55.968;37.498;2022-11-15T00:04:40;1.98;;;1.10;;
65545;SDS011;52177;55.968;37.498;2022-11-15T00:05:10;3.97;;;0.95;;
65545;SDS011;52177;55.968;37.498;2022-11-15T00:05:41;2.38;;;0.80;;
65545;SDS011;52177;55.968;37.498;2022-11-15T00:06:11;2.25;;;0.85;;
65545;SDS011;52177;55.968;37.498;2022-11-15T00:06:42;5.07;;;0.88;;
65545;SDS011;52177;55.968;37.498;2022-11-15T00:07:12;2.15;;;0.73;;
65545;SDS011;52177;55.968;37.498;2022-11-15T00:07:43;3.63;;;1.08;;
65545;SDS011;52177;55.968;37.498;2022-11-15T00:08:13;2.50;;;0.93;;
65545;SDS011;52177;55.968;37.498;2022-11-15T00:08:43;4.65;;;1.38;;
65545;SDS011;52177;55.968;37.498;2022-11-15T00:09:14;2.97;;;0.80;;
65545;SDS011;52177;55.968;37.498;2022-11-15T00:09:44;3.60;;;0.95;;
65545;SDS011;52177;55.968;37.498;2022-11-15T00:10:14;2.15;;;0.75;;
65545;SDS011;52177;55.968;37.498;2022-11-15T00:10:58;4.10;;;0.90;;
65545;SDS011;52177;55.968;37.498;2022-11-15T00:11:30;4.40;;;1.33;;
65545;SDS011;52177;55.968;37.498;2022-11-15T00:12:00;4.35;;;0.93;;
65545;SDS011;52177;55.968;37.498;2022-11-15T00:12:30;2.88;;;1.45;;
65545;SDS011;52177;55.968;37.498;2022-11-15T00:13:04;3.30;;;0.88;;
65545;SDS011;52177;55.968;37.498;2022-11-15T00:13:35;2.72;;;1.25;;
65545;SDS011;52177;55.968;37.498;2022-11-15T00:14:06;3.05;;;0.90;;
65545;SDS011;52177;55.968;37.498;2022-11-15T00:14:36;2.58;;;1.00;;
65545;SDS011;52177;55.968;37.498;2022-11-15T00:15:07;2.38;;;0.95;;
65545;SDS011;52177;55.968;37.498;2022-11-15T00:15:38;2.95;;;1.17;;
65545;SDS011;52177;55.968;37.498;2022-11-15T00:16:09;2.42;;;0.90;;
65545;SDS011;52177;55.968;37.498;2022-11-15T00:16:40;1.65;;;0.90;;
65545;SDS011;52177;55.968;37.498;2022-11-15T00:17:10;0.95;;;0.77;;
65545;SDS011;52177;55.968;37.498;2022-11-15T00:17:41;1.50;;;0.90;;
65545;SDS011;52177;55.968;37.498;2022-11-15T00:18:12;1.50;;;1.00;;
65545;SDS011;52177;55.968;37.498;2022-11-15T00:18:43;2.53;;;0.90;;
65545;SDS011;52177;55.968;37.498;2022-11-15T00:19:13;2.03;;;0.85;;
65545;SDS011;52177;55.968;37.498;2022-11-15T00:19:44;2.85;;;0.82;;
65545;SDS011;52177;55.968;37.498;2022-11-15T00:20:14;4.78;;;1.02;;
65545;SDS011;52177;55.968;37.498;2022-11-15T00:20:45;4.38;;;1.00;;
65545;SDS011;52177;55.968;37.498;2022-11-15T00:21:16;2.88;;;0.80;;
65545;SDS011;52177;55.968;37.498;2022-11-15T00:21:47;2.00;;;0.93;;
65545;SDS011;52177;55.968;37.498;2022-11-15T00:22:17;1.92;;;0.80;;
65545;SDS011;52177;55.968;37.498;2022-11-15T00:22:47;2.67;;;1.00;;
65545;SDS011;52177;55.968;37.498;2022-11-15T00:23:18;1.75;;;0.90;;
65545;SDS011;52177;55.968;37.498;2022-11-15T00:23:48;3.55;;;0.90;;
65545;SDS011;52177;55.968;37.498;2022-11-15T00:24:18;2.92;;;0.90;;
65545;SDS011;52177;55.968;37.498;2022-11-15T00:24:49;1.67;;;0.80;;
65545;SDS011;52177;55.968;37.498;2022-11-15T00:25:19;2.28;;;0.80;;
65545;SDS011;52177;55.968;37.498;2022-11-15T00:25:56;5.55;;;1.38;;
65545;SDS011;52177;55.968;37.498;2022-11-15T00:26:28;3.28;;;0.90;;
65545;SDS011;52177;55.968;37.498;2022-11-15T00:26:58;1.40;;;0.80;;
65545;SDS011;52177;55.968;37.498;2022-11-15T00:27:28;2.78;;;0.90;;
65545;SDS011;52177;55.968;37.498;2022-11-15T00:27:59;4.40;;;1.45;;
65545;SDS011;52177;55.968;37.498;2022-11-15T00:28:30;1.73;;;0.73;;
65545;SDS011;52177;55.968;37.498;2022-11-15T00:29:01;1.58;;;0.77;;
65545;SDS011;52177;55.968;37.498;2022-11-15T00:29:31;4.22;;;0.80;;
65545;SDS011;52177;55.968;37.498;2022-11-15T00:30:01;3.58;;;0.70;;
65545;SDS011;52177;55.968;37.498;2022-11-15T00:30:32;2.10;;;0.80;;
65545;SDS011;52177;55.968;37.498;2022-11-15T00:31:03;2.13;;;0.73;;
65545;SDS011;52177;55.968;37.498;2022-11-15T00:31:35;1.40;;;0.70;;
65545;SDS011;52177;55.968;37.498;2022-11-15T00:32:05;2.33;;;1.00;;
65545;SDS011;52177;55.968;37.498;2022-11-15T00:32:36;3.10;;;0.90;;
65545;SDS011;52177;55.968;37.498;2022-11-15T00:33:06;1.23;;;0.85;;
65545;SDS011;52177;55.968;37.498;2022-11-15T00:33:36;1.50;;;0.85;;
65545;SDS011;52177;55.968;37.498;2022-11-15T00:34:07;1.85;;;0.88;;
65545;SDS011;52177;55.968;37.498;2022-11-15T00:34:38;5.05;;;0.90;;
65545;SDS011;52177;55.968;37.498;2022-11-15T00:35:09;1.80;;;0.90;;
65545;SDS011;52177;55.968;37.498;2022-11-15T00:35:39;2.78;;;0.90;;
65545;SDS011;52177;55.968;37.498;2022-11-15T00:36:09;2.72;;;0.98;;
65545;SDS011;52177;55.968;37.498;2022-11-15T00:36:40;3.65;;;1.00;;
65545;SDS011;52177;55.968;37.498;2022-11-15T00:37:11;1.73;;;1.00;;
65545;SDS011;52177;55.968;37.498;2022-11-15T00:37:41;2.58;;;0.75;;
65545;SDS011;52177;55.968;37.498;2022-11-15T00:38:11;2.65;;;1.00;;
65545;SDS011;52177;55.968;37.498;2022-11-15T00:38:42;2.80;;;1.42;;
65545;SDS011;52177;55.968;37.498;2022-11-15T00:39:12;2.95;;;1.17;;
65545;SDS011;52177;55.968;37.498;2022-11-15T00:39:42;3.50;;;1.23;;
65545;SDS011;52177;55.968;37.498;2022-11-15T00:40:13;2.63;;;1.10;;
65545;SDS011;52177;55.968;37.498;2022-11-15T00:40:44;3.78;;;1.40;;
65545;SDS011;52177;55.968;37.498;2022-11-15T00:41:15;2.25;;;1.30;;
65545;SDS011;52177;55.968;37.498;2022-11-15T00:41:45;4.25;;;1.45;;
65545;SDS011;52177;55.968;37.498;2022-11-15T00:42:15;3.42;;;1.77;;
65545;SDS011;52177;55.968;37.498;2022-11-15T00:42:45;5.72;;;1.77;;
65545;SDS011;52177;55.968;37.498;2022-11-15T00:43:16;4.53;;;2.40;;
65545;SDS011;52177;55.968;37.498;2022-11-15T00:43:46;6.00;;;2.33;;
65545;SDS011;52177;55.968;37.498;2022-11-15T00:44:16;5.38;;;2.35;;
65545;SDS011;52177;55.968;37.498;2022-11-15T00:44:47;6.50;;;2.75;;
65545;SDS011;52177;55.968;37.498;2022-11-15T00:45:17;3.83;;;1.88;;
65545;SDS011;52177;55.968;37.498;2022-11-15T00:45:47;3.92;;;2.60;;
65545;SDS011;52177;55.968;37.498;2022-11-15T00:46:18;6.75;;;1.98;;
65545;SDS011;52177;55.968;37.498;2022-11-15T00:46:48;4.38;;;1.90;;
65545;SDS011;52177;55.968;37.498;2022-11-15T00:47:18;3.60;;;1.83;;
65545;SDS011;52177;55.968;37.498;2022-11-15T00:47:49;2.33;;;1.50;;
65545;SDS011;52177;55.968;37.498;2022-11-15T00:48:19;4.13;;;2.10;;
65545;SDS011;52177;55.968;37.498;2022-11-15T00:48:50;5.32;;;1.98;;
65545;SDS011;52177;55.968;37.498;2022-11-15T00:49:20;9.85;;;2.05;;
65545;SDS011;52177;55.968;37.498;2022-11-15T00:49:50;2.20;;;1.50;;
65545;SDS011;52177;55.968;37.498;2022-11-15T00:50:21;4.20;;;1.60;;
65545;SDS011;52177;55.968;37.498;2022-11-15T00:50:51;3.78;;;1.30;;
65545;SDS011;52177;55.968;37.498;2022-11-15T00:51:22;4.57;;;1.42;;
65545;SDS011;52177;55.968;37.498;2022-11-15T00:51:52;2.50;;;1.10;;
65545;SDS011;52177;55.968;37.498;2022-11-15T00:52:22;5.60;;;1.80;;
65545;SDS011;52177;55.968;37.498;2022-11-15T00:52:53;3.70;;;1.02;;
65545;SDS011;52177;55.968;37.498;2022-11-15T00:53:23;1.92;;;0.90;;
65545;SDS011;52177;55.968;37.498;2022-11-15T00:53:53;3.22;;;1.48;;
65545;SDS011;52177;55.968;37.498;2022-11-15T00:54:24;4.45;;;1.58;;
65545;SDS011;52177;55.968;37.498;2022-11-15T00:54:54;3.78;;;1.52;;
65545;SDS011;52177;55.968;37.498;2022-11-15T00:55:25;2.72;;;1.55;;
65545;SDS011;52177;55.968;37.498;2022-11-15T00:55:55;4.93;;;1.48;;
65545;SDS011;52177;55.968;37.498;2022-11-15T00:56:25;3.80;;;1.70;;
65545;SDS011;52177;55.968;37.498;2022-11-15T00:56:56;2.63;;;1.50;;
65545;SDS011;52177;55.968;37.498;2022-11-15T00:57:26;3.13;;;1.60;;
65545;SDS011;52177;55.968;37.498;2022-11-15T00:57:56;3.25;;;1.55;;
65545;SDS011;52177;55.968;37.498;2022-11-15T00:58:27;4.28;;;1.70;;
65545;SDS011;52177;55.968;37.498;2022-11-15T00:58:57;4.78;;;1.60;;
65545;SDS011;52177;55.968;37.498;2022-11-15T00:59:28;2.33;;;1.50;;
65545;SDS011;52177;55.968;37.498;2022-11-15T00:59:58;4.63;;;1.80;;
65545;SDS011;52177;55.968;37.498;2022-11-15T01:00:28;4.88;;;1.58;;
65545;SDS011;52177;55.968;37.498;2022-11-15T01:01:09;3.25;;;1.40;;
65545;SDS011;52177;55.968;37.498;2022-11-15T01:01:41;2.28;;;1.45;;
65545;SDS011;52177;55.968;37.498;2022-11-15T01:02:11;3.65;;;1.52;;
65545;SDS011;52177;55.968;37.498;2022-11-15T01:02:42;3.72;;;1.13;;
65545;SDS011;52177;55.968;37.498;2022-11-15T01:03:12;3.03;;;1.27;;
65545;SDS011;52177;55.968;37.498;2022-11-15T01:03:42;4.38;;;1.40;;
65545;SDS011;52177;55.968;37.498;2022-11-15T01:04:13;3.97;;;1.10;;
65545;SDS011;52177;55.968;37.498;2022-11-15T01:04:44;3.13;;;1.40;;
65545;SDS011;52177;55.968;37.498;2022-11-15T01:05:14;5.88;;;1.48;;
65545;SDS011;52177;55.968;37.498;2022-11-15T01:05:45;6.38;;;1.65;;
65545;SDS011;52177;55.968;37.498;2022-11-15T01:06:15;4.63;;;1.60;;
65545;SDS011;52177;55.968;37.498;2022-11-15T01:06:45;1.60;;;1.00;;
65545;SDS011;52177;55.968;37.498;2022-11-15T01:07:16;1.42;;;1.17;;
65545;SDS011;52177;55.968;37.498;2022-11-15T01:07:46;3.33;;;1.10;;
65545;SDS011;52177;55.968;37.498;2022-11-15T01:08:17;6.20;;;1.15;;
65545;SDS011;52177;55.968;37.498;2022-11-15T01:08:47;2.50;;;1.20;;
65545;SDS011;52177;55.968;37.498;2022-11-15T01:09:17;3.85;;;1.00;;
65545;SDS011;52177;55.968;37.498;2022-11-15T01:09:48;2.63;;;1.08;;
65545;SDS011;52177;55.968;37.498;2022-11-15T01:10:18;2.83;;;0.95;;
65545;SDS011;52177;55.968;37.498;2022-11-15T01:10:49;3.22;;;0.85;;
65545;SDS011;52177;55.968;37.498;2022-11-15T01:11:19;1.98;;;1.10;;
65545;SDS011;52177;55.968;37.498;2022-11-15T01:11:50;3.67;;;1.08;;
65545;SDS011;52177;55.968;37.498;2022-11-15T01:12:20;1.90;;;0.95;;
65545;SDS011;52177;55.968;37.498;2022-11-15T01:12:51;3.10;;;1.15;;
65545;SDS011;52177;55.968;37.498;2022-11-15T01:13:21;3.08;;;1.23;;
65545;SDS011;52177;55.968;37.498;2022-11-15T01:13:51;1.90;;;0.90;;
65545;SDS011;52177;55.968;37.498;2022-11-15T01:14:22;3.60;;;1.10;;
65545;SDS011;52177;55.968;37.498;2022-11-15T01:14:52;4.18;;;1.00;;
65545;SDS011;52177;55.968;37.498;2022-11-15T01:15:23;1.58;;;0.90;;
65545;SDS011;52177;55.968;37.498;2022-11-15T01:15:53;2.72;;;0.82;;
65545;SDS011;52177;55.968;37.498;2022-11-15T01:16:23;4.90;;;1.13;;
65545;SDS011;52177;55.968;37.498;2022-11-15T01:16:54;4.03;;;1.10;;
65545;SDS011;52177;55.968;37.498;2022-11-15T01:17:24;3.67;;;0.90;;
65545;SDS011;52177;55.968;37.498;2022-11-15T01:17:55;1.40;;;0.80;;
65545;SDS011;52177;55.968;37.498;2022-11-15T01:18:25;1.77;;;0.70;;
65545;SDS011;52177;55.968;37.498;2022-11-15T01:18:56;3.10;;;1.17;;
65545;SDS011;52177;55.968;37.498;2022-11-15T01:19:26;7.10;;;1.13;;
65545;SDS011;52177;55.968;37.498;2022-11-15T01:19:57;2.05;;;1.02;;
65545;SDS011;52177;55.968;37.498;2022-11-15T01:20:27;2.67;;;1.00;;
65545;SDS011;52177;55.968;37.498;2022-11-15T01:20:58;3.83;;;1.35;;
65545;SDS011;52177;55.968;37.498;2022-11-15T01:21:28;4.28;;;0.90;;
65545;SDS011;52177;55.968;37.498;2022-11-15T01:21:59;2.25;;;0.95;;
65545;SDS011;52177;55.968;37.498;2022-11-15T01:22:29;2.60;;;1.00;;
65545;SDS011;52177;55.968;37.498;2022-11-15T01:22:59;1.80;;;1.00;;
65545;SDS011;52177;55.968;37.498;2022-11-15T01:23:30;3.00;;;1.10;;
65545;SDS011;52177;55.968;37.498;2022-11-15T01:24:00;1.92;;;0.98;;
65545;SDS011;52177;55.968;37.498;2022-11-15T01:24:31;2.67;;;0.95;;
65545;SDS011;52177;55.968;37.498;2022-11-15T01:25:01;1.92;;;0.80;;
65545;SDS011;52177;55.968;37.498;2022-11-15T01:25:31;3.95;;;1.25;;
65545;SDS011;52177;55.968;37.498;2022-11-15T01:26:03;2.35;;;1.00;;
65545;SDS011;52177;55.968;37.498;2022-11-15T01:26:35;2.03;;;1.23;;
65545;SDS011;52177;55.968;37.498;2022-11-15T01:27:06;3.33;;;0.90;;
65545;SDS011;52177;55.968;37.498;2022-11-15T01:27:36;3.28;;;0.90;;
65545;SDS011;52177;55.968;37.498;2022-11-15T01:28:07;4.57;;;1.20;;
65545;SDS011;52177;55.968;37.498;2022-11-15T01:28:38;2.05;;;1.08;;
65545;SDS011;52177;55.968;37.498;2022-11-15T01:29:10;2.17;;;0.95;;
65545;SDS011;52177;55.968;37.498;2022-11-15T01:29:40;4.68;;;1.30;;
65545;SDS011;52177;55.968;37.498;2022-11-15T01:30:11;5.72;;;1.15;;
65545;SDS011;52177;55.968;37.498;2022-11-15T01:30:41;1.65;;;0.98;;
65545;SDS011;52177;55.968;37.498;2022-11-15T01:31:13;2.60;;;0.90;;
65545;SDS011;52177;55.968;37.498;2022-11-15T01:31:52;2.38;;;0.88;;
65545;SDS011;52177;55.968;37.498;2022-11-15T01:32:23;2.20;;;0.95;;
65545;SDS011;52177;55.968;37.498;2022-11-15T01:32:53;3.30;;;0.95;;
65545;SDS011;52177;55.968;37.498;2022-11-15T01:33:24;2.67;;;1.25;;
65545;SDS011;52177;55.968;37.498;2022-11-15T01:33:54;3.28;;;1.23;;
65545;SDS011;52177;55.968;37.498;2022-11-15T01:34:25;1.50;;;0.80;;
65545;SDS011;52177;55.968;37.498;2022-11-15T01:34:55;3.67;;;0.88;;
65545;SDS011;52177;55.968;37.498;2022-11-15T01:35:25;4.57;;;1.10;;
65545;SDS011;52177;55.968;37.498;2022-11-15T01:35:56;2.35;;;1.00;;
65545;SDS011;52177;55.968;37.498;2022-11-15T01:36:26;4.68;;;1.27;;
65545;SDS011;52177;55.968;37.498;2022-11-15T01:36:57;3.22;;;1.10;;
65545;SDS011;52177;55.968;37.498;2022-11-15T01:37:27;2.97;;;1.40;;
65545;SDS011;52177;55.968;37.498;2022-11-15T01:37:57;1.50;;;0.95;;
65545;SDS011;52177;55.968;37.498;2022-11-15T01:38:28;2.95;;;1.13;;
65545;SDS011;52177;55.968;37.498;2022-11-15T01:38:58;2.72;;;1.10;;
65545;SDS011;52177;55.968;37.498;2022-11-15T01:39:29;2.90;;;1.10;;
65545;SDS011;52177;55.968;37.498;2022-11-15T01:39:59;5.07;;;1.05;;
65545;SDS011;52177;55.968;37.498;2022-11-15T01:40:30;2.08;;;1.00;;
65545;SDS011;52177;55.968;37.498;2022-11-15T01:41:00;3.25;;;1.35;;
65545;SDS011;52177;55.968;37.498;2022-11-15T01:41:32;2.60;;;1.13;;
65545;SDS011;52177;55.968;37.498;2022-11-15T01:42:03;4.53;;;1.27;;
65545;SDS011;52177;55.968;37.498;2022-11-15T01:42:34;2.55;;;1.00;;
65545;SDS011;52177;55.968;37.498;2022-11-15T01:43:52;3.35;;;0.90;;
65545;SDS011;52177;55.968;37.498;2022-11-15T01:45:03;3.63;;;1.20;;
65545;SDS011;52177;55.968;37.498;2022-11-15T01:45:34;4.18;;;1.02;;
65545;SDS011;52177;55.968;37.498;2022-11-15T01:46:50;2.58;;;0.90;;
65545;SDS011;52177;55.968;37.498;2022-11-15T01:48:03;2.67;;;1.00;;
65545;SDS011;52177;55.968;37.498;2022-11-15T01:48:34;2.45;;;1.45;;
65545;SDS011;52177;55.968;37.498;2022-11-15T01:49:05;4.03;;;1.17;;
65545;SDS011;52177;55.968;37.498;2022-11-15T01:49:49;0.98;;;0.80;;
65545;SDS011;52177;55.968;37.498;2022-11-15T01:50:32;3.95;;;1.35;;
65545;SDS011;52177;55.968;37.498;2022-11-15T01:51:06;2.35;;;0.98;;
65545;SDS011;52177;55.968;37.498;2022-11-15T01:51:39;2.67;;;1.05;;
65545;SDS011;52177;55.968;37.498;2022-11-15T01:52:13;6.68;;;0.95;;
65545;SDS011;52177;55.968;37.498;2022-11-15T01:52:47;1.67;;;0.90;;
65545;SDS011;52177;55.968;37.498;2022-11-15T01:53:19;2.33;;;1.00;;
65545;SDS011;52177;55.968;37.498;2022-11-15T01:53:54;2.55;;;1.10;;
65545;SDS011;52177;55.968;37.498;2022-11-15T01:54:27;1.77;;;0.90;;
65545;SDS011;52177;55.968;37.498;2022-11-15T01:55:39;3.58;;;1.13;;
65545;SDS011;52177;55.968;37.498;2022-11-15T01:56:11;3.83;;;1.02;;
65545;SDS011;52177;55.968;37.498;2022-11-15T01:56:48;5.53;;;1.00;;
65545;SDS011;52177;55.968;37.498;2022-11-15T01:57:22;4.10;;;1.10;;
65545;SDS011;52177;55.968;37.498;2022-11-15T01:57:53;4.93;;;1.20;;
65545;SDS011;52177;55.968;37.498;2022-11-15T01:58:26;3.40;;;1.02;;
65545;SDS011;52177;55.968;37.498;2022-11-15T01:58:57;3.42;;;1.00;;
65545;SDS011;52177;55.968;37.498;2022-11-15T01:59:30;2.95;;;1.20;;
65545;SDS011;52177;55.968;37.498;2022-11-15T02:00:02;3.55;;;1.02;;
65545;SDS011;52177;55.968;37.498;2022-11-15T02:00:34;1.65;;;0.80;;
65545;SDS011;52177;55.968;37.498;2022-11-15T02:01:05;2.78;;;1.00;;
65545;SDS011;52177;55.968;37.498;2022-11-15T02:01:35;2.90;;;1.00;;
65545;SDS011;52177;55.968;37.498;2022-11-15T02:02:06;3.13;;;1.08;;
65545;SDS011;52177;55.968;37.498;2022-11-15T02:02:37;3.97;;;1.10;;
65545;SDS011;52177;55.968;37.498;2022-11-15T02:03:07;8.02;;;1.25;;
65545;SDS011;52177;55.968;37.498;2022-11-15T02:03:41;5.43;;;1.40;;
65545;SDS011;52177;55.968;37.498;2022-11-15T02:04:23;1.77;;;1.08;;
65545;SDS011;52177;55.968;37.498;2022-11-15T02:04:57;2.63;;;1.25;;
65545;SDS011;52177;55.968;37.498;2022-11-15T02:05:28;2.40;;;1.20;;
65545;SDS011;52177;55.968;37.498;2022-11-15T02:06:01;2.90;;;1.20;;
65545;SDS011;52177;55.968;37.498;2022-11-15T02:06:34;2.13;;;1.10;;
65545;SDS011;52177;55.968;37.498;2022-11-15T02:07:05;2.60;;;1.70;;
65545;SDS011;52177;55.968;37.498;2022-11-15T02:07:39;3.28;;;1.15;;
65545;SDS011;52177;55.968;37.498;2022-11-15T02:08:10;4.00;;;1.35;;
65545;SDS011;52177;55.968;37.498;2022-11-15T02:08:49;2.38;;;1.00;;
65545;SDS011;52177;55.968;37.498;2022-11-15T02:09:21;3.15;;;1.23;;
65545;SDS011;52177;55.968;37.498;2022-11-15T02:09:51;2.67;;;1.10;;
65545;SDS011;52177;55.968;37.498;2022-11-15T02:10:23;3.45;;;1.17;;
65545;SDS011;52177;55.968;37.498;2022-11-15T02:10:54;4.40;;;0.90;;
65545;SDS011;52177;55.968;37.498;2022-11-15T02:11:25;2.85;;;1.30;;
65545;SDS011;52177;55.968;37.498;2022-11-15T02:11:55;3.92;;;1.15;;
65545;SDS011;52177;55.968;37.498;2022-11-15T02:12:27;3.80;;;1.10;;
65545;SDS011;52177;55.968;37.498;2022-11-15T02:12:57;2.05;;;1.10;;
65545;SDS011;52177;55.968;37.498;2022-11-15T02:13:30;1.92;;;1.17;;
65545;SDS011;52177;55.968;37.498;2022-11-15T02:14:00;4.38;;;1.10;;
65545;SDS011;52177;55.968;37.498;2022-11-15T02:14:32;2.65;;;1.30;;
65545;SDS011;52177;55.968;37.498;2022-11-15T02:15:04;2.75;;;1.23;;
65545;SDS011;52177;55.968;37.498;2022-11-15T02:15:38;3.45;;;1.00;;
65545;SDS011;52177;55.968;37.498;2022-11-15T02:18:18;1.38;;;1.20;;
65545;SDS011;52177;55.968;37.498;2022-11-15T02:25:24;4.38;;;2.47;;
65545;SDS011;52177;55.968;37.498;2022-11-15T02:28:34;5.53;;;2.42;;
65545;SDS011;52177;55.968;37.498;2022-11-15T02:29:18;5.97;;;2.53;;
65545;SDS011;52177;55.968;37.498;2022-11-15T02:31:05;5.82;;;3.08;;
65545;SDS011;52177;55.968;37.498;2022-11-15T02:32:40;7.60;;;3.50;;
65545;SDS011;52177;55.968;37.498;2022-11-15T02:35:23;8.20;;;3.55;;
65545;SDS011;52177;55.968;37.498;2022-11-15T02:36:12;8.45;;;3.70;;
65545;SDS011;52177;55.968;37.498;2022-11-15T02:37:08;6.85;;;3.63;;
65545;SDS011;52177;55.968;37.498;2022-11-15T02:37:47;6.88;;;4.10;;
65545;SDS011;52177;55.968;37.498;2022-11-15T02:39:05;8.10;;;3.83;;
65545;SDS011;52177;55.968;37.498;2022-11-15T02:40:40;6.00;;;3.40;;
65545;SDS011;52177;55.968;37.498;2022-11-15T02:42:13;7.45;;;4.43;;
65545;SDS011;52177;55.968;37.498;2022-11-15T02:43:13;8.25;;;3.75;;
65545;SDS011;52177;55.968;37.498;2022-11-15T02:44:24;8.50;;;3.47;;
65545;SDS011;52177;55.968;37.498;2022-11-15T02:45:03;13.82;;;3.85;;
65545;SDS011;52177;55.968;37.498;2022-11-15T02:45:37;5.82;;;3.65;;
65545;SDS011;52177;55.968;37.498;2022-11-15T02:47:44;8.15;;;4.47;;
65545;SDS011;52177;55.968;37.498;2022-11-15T02:48:18;8.77;;;3.67;;
65545;SDS011;52177;55.968;37.498;2022-11-15T02:48:52;6.28;;;3.83;;
65545;SDS011;52177;55.968;37.498;2022-11-15T02:49:23;7.68;;;3.40;;
65545;SDS011;52177;55.968;37.498;2022-11-15T02:49:58;6.43;;;4.00;;
65545;SDS011;52177;55.968;37.498;2022-11-15T02:50:32;6.53;;;3.13;;
65545;SDS011;52177;55.968;37.498;2022-11-15T02:51:03;5.32;;;3.20;;
65545;SDS011;52177;55.968;37.498;2022-11-15T02:51:34;8.02;;;3.70;;
65545;SDS011;52177;55.968;37.498;2022-11-15T02:52:04;8.05;;;3.42;;
65545;SDS011;52177;55.968;37.498;2022-11-15T02:52:35;7.28;;;2.85;;
65545;SDS011;52177;55.968;37.498;2022-11-15T02:53:06;9.82;;;3.25;;
65545;SDS011;52177;55.968;37.498;2022-11-15T02:53:37;6.93;;;3.25;;
65545;SDS011;52177;55.968;37.498;2022-11-15T02:54:12;5.50;;;3.13;;
65545;SDS011;52177;55.968;37.498;2022-11-15T02:54:57;6.57;;;3.25;;
65545;SDS011;52177;55.968;37.498;2022-11-15T02:56:03;6.28;;;3.05;;
65545;SDS011;52177;55.968;37.498;2022-11-15T02:56:34;4.05;;;2.30;;
65545;SDS011;52177;55.968;37.498;2022-11-15T02:57:12;5.15;;;3.00;;
65545;SDS011;52177;55.968;37.498;2022-11-15T03:01:10;6.30;;;2.47;;
65545;SDS011;52177;55.968;37.498;2022-11-15T03:04:44;3.30;;;1.67;;
65545;SDS011;52177;55.968;37.498;2022-11-15T03:07:20;7.00;;;3.13;;
65545;SDS011;52177;55.968;37.498;2022-11-15T03:08:05;10.50;;;2.92;;
65545;SDS011;52177;55.968;37.498;2022-11-15T03:10:18;9.23;;;3.00;;
65545;SDS011;52177;55.968;37.498;2022-11-15T03:10:58;5.80;;;3.65;;
65545;SDS011;52177;55.968;37.498;2022-11-15T03:11:47;7.72;;;3.00;;
65545;SDS011;52177;55.968;37.498;2022-11-15T03:14:24;5.65;;;2.55;;
65545;SDS011;52177;55.968;37.498;2022-11-15T03:15:00;7.78;;;2.75;;
65545;SDS011;52177;55.968;37.498;2022-11-15T03:15:37;6.43;;;2.90;;
65545;SDS011;52177;55.968;37.498;2022-11-15T03:16:24;7.97;;;3.25;;
65545;SDS011;52177;55.968;37.498;2022-11-15T03:17:34;4.75;;;2.40;;
65545;SDS011;52177;55.968;37.498;2022-11-15T03:18:12;4.85;;;2.45;;
65545;SDS011;52177;55.968;37.498;2022-11-15T03:18:49;5.47;;;2.30;;
65545;SDS011;52177;55.968;37.498;2022-11-15T03:19:30;4.35;;;2.15;;
65545;SDS011;52177;55.968;37.498;2022-11-15T03:20:04;5.38;;;2.90;;
65545;SDS011;52177;55.968;37.498;2022-11-15T03:20:37;6.63;;;2.50;;
65545;SDS011;52177;55.968;37.498;2022-11-15T03:21:10;5.45;;;2.30;;
65545;SDS011;52177;55.968;37.498;2022-11-15T03:21:44;5.82;;;2.10;;
65545;SDS011;52177;55.968;37.498;2022-11-15T03:22:17;6.38;;;2.10;;
65545;SDS011;52177;55.968;37.498;2022-11-15T03:22:50;7.20;;;2.13;;
65545;SDS011;52177;55.968;37.498;2022-11-15T03:23:23;6.05;;;2.13;;
65545;SDS011;52177;55.968;37.498;2022-11-15T03:23:56;5.07;;;2.45;;
65545;SDS011;52177;55.968;37.498;2022-11-15T03:24:31;6.82;;;1.98;;
65545;SDS011;52177;55.968;37.498;2022-11-15T03:25:05;7.80;;;2.03;;
65545;SDS011;52177;55.968;37.498;2022-11-15T03:25:41;4.78;;;1.85;;
65545;SDS011;52177;55.968;37.498;2022-11-15T03:26:16;4.05;;;2.15;;
65545;SDS011;52177;55.968;37.498;2022-11-15T03:26:50;5.65;;;1.95;;
65545;SDS011;52177;55.968;37.498;2022-11-15T03:27:25;5.55;;;2.50;;
65545;SDS011;52177;55.968;37.498;2022-11-15T03:28:01;5.32;;;2.20;;
65545;SDS011;52177;55.968;37.498;2022-11-15T03:28:36;3.75;;;2.10;;
65545;SDS011;52177;55.968;37.498;2022-11-15T03:29:20;4.45;;;1.88;;
65545;SDS011;52177;55.968;37.498;2022-11-15T03:29:56;5.32;;;2.10;;
65545;SDS011;52177;55.968;37.498;2022-11-15T03:30:32;4.43;;;1.60;;
65545;SDS011;52177;55.968;37.498;2022-11-15T03:31:07;3.65;;;1.60;;
65545;SDS011;52177;55.968;37.498;2022-11-15T03:32:07;3.17;;;1.42;;
65545;SDS011;52177;55.968;37.498;2022-11-15T03:32:46;3.10;;;1.27;;
65545;SDS011;52177;55.968;37.498;2022-11-15T03:33:21;5.22;;;1.95;;
65545;SDS011;52177;55.968;37.498;2022-11-15T03:33:52;3.70;;;1.55;;
65545;SDS011;52177;55.968;37.498;2022-11-15T03:35:14;4.20;;;1.40;;
65545;SDS011;52177;55.968;37.498;2022-11-15T03:35:50;1.88;;;1.45;;
65545;SDS011;52177;55.968;37.498;2022-11-15T03:36:23;4.43;;;1.70;;
65545;SDS011;52177;55.968;37.498;2022-11-15T03:36:55;5.13;;;1.13;;
65545;SDS011;52177;55.968;37.498;2022-11-15T03:37:36;3.67;;;1.17;;
65545;SDS011;52177;55.968;37.498;2022-11-15T03:38:56;3.83;;;1.30;;
65545;SDS011;52177;55.968;37.498;2022-11-15T03:39:30;4.47;;;1.45;;
65545;SDS011;52177;55.968;37.498;2022-11-15T03:40:01;4.85;;;1.60;;
65545;SDS011;52177;55.968;37.498;2022-11-15T03:40:35;2.20;;;1.20;;
65545;SDS011;52177;55.968;37.498;2022-11-15T03:41:14;3.55;;;1.35;;
65545;SDS011;52177;55.968;37.498;2022-11-15T03:42:55;3.55;;;1.40;;
65545;SDS011;52177;55.968;37.498;2022-11-15T03:45:15;2.33;;;1.17;;
65545;SDS011;52177;55.968;37.498;2022-11-15T03:46:26;3.72;;;1.25;;
65545;SDS011;52177;55.968;37.498;2022-11-15T03:47:06;2.25;;;1.20;;
65545;SDS011;52177;55.968;37.498;2022-11-15T03:47:47;2.20;;;1.13;;
65545;SDS011;52177;55.968;37.498;2022-11-15T03:48:24;1.45;;;1.05;;
65545;SDS011;52177;55.968;37.498;2022-11-15T03:49:04;3.80;;;1.13;;
65545;SDS011;52177;55.968;37.498;2022-11-15T03:49:40;2.38;;;1.25;;
65545;SDS011;52177;55.968;37.498;2022-11-15T03:50:16;2.50;;;1.58;;
65545;SDS011;52177;55.968;37.498;2022-11-15T03:50:48;5.35;;;1.50;;
65545;SDS011;52177;55.968;37.498;2022-11-15T03:51:19;3.38;;;1.20;;
65545;SDS011;52177;55.968;37.498;2022-11-15T03:51:50;6.75;;;1.30;;
65545;SDS011;52177;55.968;37.498;2022-11-15T03:52:20;2.88;;;1.23;;
65545;SDS011;52177;55.968;37.498;2022-11-15T03:52:52;6.93;;;1.50;;
65545;SDS011;52177;55.968;37.498;2022-11-15T03:53:24;4.68;;;1.77;;
65545;SDS011;52177;55.968;37.498;2022-11-15T03:53:55;5.63;;;1.40;;
65545;SDS011;52177;55.968;37.498;2022-11-15T03:54:25;2.20;;;1.00;;
65545;SDS011;52177;55.968;37.498;2022-11-15T03:54:56;4.18;;;1.50;;